createdAt,value
2022-09-26T00:03:02.197Z,6.90
2022-09-26T00:06:09.900Z,12.00
2022-09-26T00:09:18.528Z,6.37
2022-09-26T00:12:25.043Z,7.93
2022-09-26T00:15:31.411Z,8.63
2022-09-26T00:18:38.250Z,7.00
2022-09-26T00:21:44.972Z,5.67
2022-09-26T00:24:54.048Z,7.93
2022-09-26T00:28:00.331Z,7.93
2022-09-26T00:31:08.177Z,7.83
2022-09-26T00:34:15.659Z,7.10
2022-09-26T00:37:21.854Z,6.93
2022-09-26T00:40:30.713Z,6.23
2022-09-26T00:43:39.665Z,6.67
2022-09-26T00:46:49.427Z,7.67
2022-09-26T00:49:59.871Z,6.97
2022-09-26T00:53:10.916Z,5.97
2022-09-26T00:56:22.566Z,11.40
2022-09-26T00:59:32.490Z,10.17
2022-09-26T01:02:40.293Z,6.73
2022-09-26T01:05:47.510Z,10.03
2022-09-26T01:08:58.383Z,7.00
2022-09-26T01:12:08.655Z,6.63
2022-09-26T01:15:14.974Z,6.10
2022-09-26T01:18:21.621Z,9.93
2022-09-26T01:21:48.474Z,9.73
2022-09-26T01:25:08.928Z,6.37
2022-09-26T01:28:34.192Z,6.13
2022-09-26T01:32:09.678Z,5.53
2022-09-26T01:35:41.532Z,5.50
2022-09-26T01:39:01.176Z,5.57
2022-09-26T01:42:18.111Z,10.80
2022-09-26T01:45:30.653Z,5.73
2022-09-26T01:48:45.867Z,6.50
2022-09-26T01:51:59.287Z,6.17
2022-09-26T01:55:10.168Z,6.13
2022-09-26T01:58:22.113Z,6.33
2022-09-26T02:01:34.332Z,7.47
2022-09-26T02:04:44.739Z,6.13
2022-09-26T02:07:56.164Z,5.80
2022-09-26T02:11:07.662Z,6.60
2022-09-26T02:14:18.167Z,13.33
2022-09-26T02:17:32.041Z,5.43
2022-09-26T02:20:43.135Z,4.97
2022-09-26T02:23:51.039Z,6.90
2022-09-26T02:26:57.249Z,8.93
2022-09-26T02:30:03.467Z,8.10
2022-09-26T02:33:09.876Z,6.07
2022-09-26T02:36:19.888Z,5.80
2022-09-26T02:39:26.465Z,5.93
2022-09-26T02:42:37.217Z,6.70
2022-09-26T02:45:48.679Z,6.83
2022-09-26T02:49:08.687Z,7.63
2022-09-26T02:52:29.940Z,20.33
2022-09-26T02:55:46.266Z,17.70
2022-09-26T02:58:59.810Z,10.67
2022-09-26T03:02:15.893Z,10.97
2022-09-26T03:05:24.696Z,9.47
2022-09-26T03:08:38.643Z,6.43
2022-09-26T03:11:45.725Z,6.73
2022-09-26T03:14:57.876Z,18.40
2022-09-26T03:18:13.075Z,15.67
2022-09-26T03:21:19.649Z,8.33
2022-09-26T03:24:28.031Z,7.20
2022-09-26T03:27:36.068Z,14.90
2022-09-26T03:30:42.115Z,16.07
2022-09-26T03:33:48.615Z,9.97
2022-09-26T03:36:55.671Z,13.67
2022-09-26T03:40:04.110Z,6.43
2022-09-26T03:43:11.179Z,9.03
2022-09-26T03:46:17.237Z,11.83
2022-09-26T03:49:23.340Z,6.70
2022-09-26T03:52:31.123Z,7.00
2022-09-26T03:55:38.578Z,7.97
2022-09-26T03:58:44.818Z,20.93
2022-09-26T04:01:51.236Z,35.10
2022-09-26T04:04:57.506Z,19.77
2022-09-26T04:08:04.155Z,17.47
2022-09-26T04:11:13.626Z,21.77
2022-09-26T04:14:20.367Z,21.13
2022-09-26T04:17:26.847Z,23.63
2022-09-26T04:20:33.143Z,19.53
2022-09-26T04:23:41.743Z,17.33
2022-09-26T04:26:49.511Z,15.73
2022-09-26T04:29:57.292Z,12.57
2022-09-26T04:33:03.574Z,12.03
2022-09-26T04:36:12.231Z,16.43
2022-09-26T04:39:18.217Z,10.53
2022-09-26T04:42:26.093Z,10.63
2022-09-26T04:45:32.172Z,14.43
2022-09-26T04:48:38.540Z,8.87
2022-09-26T04:51:44.980Z,8.97
2022-09-26T04:54:51.190Z,15.27
2022-09-26T04:57:58.709Z,11.53
2022-09-26T05:01:06.457Z,18.53
2022-09-26T05:04:13.530Z,18.93
2022-09-26T05:07:19.912Z,22.93
2022-09-26T05:10:26.000Z,19.50
2022-09-26T05:13:33.750Z,16.53
2022-09-26T05:16:40.292Z,17.87
2022-09-26T05:19:46.349Z,20.47
2022-09-26T05:22:52.789Z,15.00
2022-09-26T05:26:16.735Z,13.17
2022-09-26T05:29:24.699Z,11.10
2022-09-26T05:32:31.160Z,9.23
2022-09-26T05:35:37.523Z,11.93
2022-09-26T05:38:43.923Z,12.40
2022-09-26T05:41:49.757Z,10.57
2022-09-26T05:44:57.663Z,10.60
2022-09-26T05:48:03.753Z,11.07
2022-09-26T05:51:12.554Z,10.40
2022-09-26T05:54:18.943Z,8.97
2022-09-26T05:57:25.477Z,14.53
2022-09-26T06:00:34.062Z,17.33
2022-09-26T06:03:44.153Z,13.77
2022-09-26T06:06:51.407Z,31.67
2022-09-26T06:09:57.403Z,22.03
2022-09-26T06:13:04.139Z,25.73
2022-09-26T06:16:14.748Z,12.57
2022-09-26T06:19:23.091Z,12.47
2022-09-26T06:22:29.746Z,12.73
2022-09-26T06:25:35.895Z,10.00
2022-09-26T06:28:42.175Z,9.40
2022-09-26T06:31:50.770Z,8.87
2022-09-26T06:34:57.159Z,10.37
2022-09-26T06:38:05.075Z,7.20
2022-09-26T06:41:11.560Z,7.67
2022-09-26T06:44:18.176Z,7.57
2022-09-26T06:47:26.100Z,12.70
2022-09-26T06:50:32.475Z,8.67
2022-09-26T06:53:39.264Z,8.40
2022-09-26T06:56:45.594Z,7.23
2022-09-26T06:59:51.641Z,9.37
2022-09-26T07:03:00.916Z,8.20
2022-09-26T07:06:07.599Z,11.73
2022-09-26T07:09:13.810Z,7.30
2022-09-26T07:12:19.982Z,10.73
2022-09-26T07:15:30.893Z,15.93
2022-09-26T07:18:39.702Z,6.60
2022-09-26T07:21:46.432Z,10.77
2022-09-26T07:24:52.787Z,8.97
2022-09-26T07:27:59.710Z,8.77
2022-09-26T07:31:07.681Z,9.77
2022-09-26T07:34:18.277Z,10.37
2022-09-26T07:37:25.371Z,6.67
2022-09-26T07:40:31.495Z,9.97
2022-09-26T07:47:21.236Z,6.03
2022-09-26T07:50:28.848Z,6.43
2022-09-26T07:53:35.032Z,6.00
2022-09-26T07:56:43.806Z,7.13
2022-09-26T07:59:50.627Z,6.27
2022-09-26T08:03:02.165Z,6.43
2022-09-26T08:06:10.659Z,6.17
2022-09-26T08:09:16.953Z,5.90
2022-09-26T08:12:23.375Z,5.87
2022-09-26T08:15:29.871Z,7.97
2022-09-26T08:18:36.330Z,6.00
2022-09-26T08:21:44.428Z,6.43
2022-09-26T08:24:51.027Z,7.13
2022-09-26T08:27:59.644Z,5.80
2022-09-26T08:31:07.202Z,6.53
2022-09-26T08:34:13.690Z,6.97
2022-09-26T08:37:21.801Z,6.43
2022-09-26T08:40:34.363Z,7.90
2022-09-26T08:44:13.101Z,10.77
2022-09-26T08:47:33.805Z,8.93
2022-09-26T08:50:47.862Z,9.00
2022-09-26T08:54:02.440Z,7.83
2022-09-26T08:57:22.561Z,7.07
2022-09-26T09:00:38.833Z,7.07
2022-09-26T09:03:52.951Z,8.57
2022-09-26T09:07:05.635Z,7.83
2022-09-26T09:10:19.415Z,10.87
2022-09-26T09:13:39.637Z,8.27
2022-09-26T09:16:58.608Z,6.13
2022-09-26T09:20:16.224Z,7.53
2022-09-26T09:23:35.830Z,7.70
2022-09-26T09:30:23.950Z,7.30
2022-09-26T09:33:35.223Z,6.33
2022-09-26T09:36:45.341Z,9.30
2022-09-26T09:39:52.503Z,6.30
2022-09-26T09:43:05.375Z,6.47
2022-09-26T09:46:18.112Z,7.83
2022-09-26T09:49:25.813Z,6.97
2022-09-26T09:52:52.340Z,6.80
2022-09-26T09:56:10.671Z,9.63
2022-09-26T09:59:42.289Z,6.13
2022-09-26T10:02:55.009Z,6.37
2022-09-26T10:06:03.162Z,5.63
2022-09-26T10:09:38.674Z,4.53
2022-09-26T10:12:45.848Z,4.30
2022-09-26T10:15:59.085Z,4.00
2022-09-26T10:19:07.311Z,3.57
2022-09-26T10:22:24.301Z,3.50
2022-09-26T10:25:30.592Z,4.30
2022-09-26T10:28:45.031Z,4.10
2022-09-26T10:31:58.719Z,4.30
2022-09-26T10:35:08.923Z,6.30
2022-09-26T10:38:21.959Z,9.17
2022-09-26T10:41:27.266Z,4.03
2022-09-26T10:44:35.038Z,4.07
2022-09-26T10:47:46.267Z,8.80
2022-09-26T10:50:55.795Z,7.73
2022-09-26T10:54:06.414Z,4.90
2022-09-26T10:57:23.205Z,4.63
2022-09-26T11:00:38.903Z,4.30
2022-09-26T11:03:47.865Z,4.83
2022-09-26T11:06:54.459Z,7.70
2022-09-26T11:10:04.452Z,6.00
2022-09-26T11:13:18.039Z,4.60
2022-09-26T11:16:24.377Z,5.03
2022-09-26T11:19:40.807Z,4.50
2022-09-26T11:22:54.487Z,4.97
2022-09-26T11:26:17.080Z,4.70
2022-09-26T11:29:38.654Z,4.07
2022-09-26T11:32:48.720Z,4.13
2022-09-26T11:36:11.051Z,4.40
2022-09-26T11:39:37.360Z,4.43
2022-09-26T11:42:55.598Z,8.77
2022-09-26T11:46:18.684Z,5.60
2022-09-26T11:49:39.745Z,4.80
2022-09-26T11:53:02.049Z,4.83
2022-09-26T11:56:32.897Z,4.78
2022-09-26T11:59:59.672Z,4.30
2022-09-26T12:03:30.563Z,4.80
2022-09-26T12:06:49.811Z,5.03
2022-09-26T12:10:13.143Z,4.75
2022-09-26T12:13:29.953Z,4.80
2022-09-26T12:16:46.739Z,4.70
2022-09-26T12:20:02.518Z,4.30
2022-09-26T12:23:20.671Z,6.25
2022-09-26T12:26:36.775Z,3.80
2022-09-26T12:29:49.483Z,4.30
2022-09-26T12:33:22.655Z,3.17
2022-09-26T12:36:40.535Z,4.25
2022-09-26T12:40:10.365Z,4.67
2022-09-26T12:43:50.635Z,3.93
2022-09-26T12:47:19.718Z,4.57
2022-09-26T12:50:37.762Z,5.63
2022-09-26T12:54:10.627Z,4.50
2022-09-26T12:57:28.301Z,5.23
2022-09-26T13:00:44.429Z,5.37
2022-09-26T13:04:25.120Z,4.50
2022-09-26T13:07:43.466Z,4.50
2022-09-26T13:11:01.258Z,4.30
2022-09-26T13:14:49.132Z,6.23
2022-09-26T13:18:02.662Z,4.30
2022-09-26T13:21:14.000Z,3.90
2022-09-26T13:24:25.700Z,3.73
2022-09-26T13:27:38.394Z,4.00
2022-09-26T13:30:50.212Z,4.63
2022-09-26T13:34:01.418Z,5.70
2022-09-26T13:37:28.687Z,11.07
2022-09-26T13:40:42.091Z,5.00
2022-09-26T13:44:03.591Z,5.23
2022-09-26T13:47:18.938Z,6.63
2022-09-26T13:50:35.427Z,10.23
2022-09-26T13:53:50.231Z,5.60
2022-09-26T13:56:56.328Z,5.50
2022-09-26T14:00:08.044Z,11.40
2022-09-26T14:03:44.588Z,5.57
2022-09-26T14:07:32.982Z,5.03
2022-09-26T14:10:42.231Z,11.43
2022-09-26T14:13:50.229Z,12.37
2022-09-26T14:16:58.325Z,5.97
2022-09-26T14:20:05.927Z,4.37
2022-09-26T14:23:35.751Z,14.90
2022-09-26T14:26:44.364Z,4.63
2022-09-26T14:29:54.456Z,4.20
2022-09-26T14:33:03.902Z,13.97
2022-09-26T14:36:26.144Z,20.03
2022-09-26T14:39:39.669Z,7.23
2022-09-26T14:42:54.076Z,4.10
2022-09-26T14:46:05.204Z,13.57
2022-09-26T14:49:23.763Z,20.83
2022-09-26T14:52:30.964Z,4.80
2022-09-26T14:55:58.519Z,4.00
2022-09-26T14:59:44.254Z,4.90
2022-09-26T15:02:50.524Z,4.70
2022-09-26T15:05:57.100Z,9.77
2022-09-26T15:09:10.673Z,11.20
2022-09-26T15:12:23.777Z,5.30
2022-09-26T15:15:42.961Z,5.27
2022-09-26T15:18:54.314Z,5.50
2022-09-26T15:22:03.026Z,5.53
2022-09-26T15:25:10.884Z,4.83
2022-09-26T15:28:18.893Z,8.47
2022-09-26T15:31:28.249Z,5.10
2022-09-26T15:34:37.181Z,6.00
2022-09-26T15:37:44.209Z,6.27
2022-09-26T15:41:01.547Z,17.03
2022-09-26T15:44:19.554Z,13.23
2022-09-26T15:47:41.839Z,6.97
2022-09-26T15:50:50.334Z,6.73
2022-09-26T15:54:00.579Z,9.27
2022-09-26T15:57:08.171Z,11.20
2022-09-26T16:00:17.025Z,8.77
2022-09-26T16:03:38.967Z,9.37
2022-09-26T16:06:54.350Z,8.40
2022-09-26T16:10:01.038Z,6.90
2022-09-26T16:13:23.990Z,19.37
2022-09-26T16:16:35.734Z,7.77
2022-09-26T16:19:47.683Z,8.10
2022-09-26T16:23:00.320Z,7.33
2022-09-26T16:26:26.187Z,7.00
2022-09-26T16:29:34.835Z,10.53
2022-09-26T16:32:42.386Z,9.17
2022-09-26T16:35:49.544Z,14.67
2022-09-26T16:38:58.947Z,23.50
2022-09-26T16:42:16.279Z,4.87
2022-09-26T16:45:22.850Z,9.27
2022-09-26T16:48:41.950Z,5.50
2022-09-26T16:52:27.051Z,7.80
2022-09-26T16:55:37.626Z,8.40
2022-09-26T16:58:50.303Z,11.10
2022-09-26T17:02:00.112Z,10.73
2022-09-26T17:05:16.924Z,17.70
2022-09-26T17:08:23.415Z,27.97
2022-09-26T17:11:30.164Z,27.40
2022-09-26T17:14:40.760Z,32.67
2022-09-26T17:17:47.185Z,34.30
2022-09-26T17:20:54.352Z,29.63
2022-09-26T17:24:00.891Z,15.83
2022-09-26T17:27:09.048Z,17.57
2022-09-26T17:30:18.314Z,22.37
2022-09-26T17:33:30.371Z,18.23
2022-09-26T17:36:39.371Z,16.20
2022-09-26T17:39:45.794Z,19.70
2022-09-26T17:42:55.436Z,38.30
2022-09-26T17:46:02.265Z,27.13
2022-09-26T17:49:14.047Z,24.80
2022-09-26T17:52:27.387Z,37.23
2022-09-26T17:55:33.672Z,27.90
2022-09-26T17:58:44.049Z,28.23
2022-09-26T18:01:54.678Z,18.63
2022-09-26T18:05:04.553Z,18.00
2022-09-26T18:08:19.330Z,32.87
2022-09-26T18:11:25.558Z,29.37
2022-09-26T18:14:35.280Z,21.57
2022-09-26T18:17:42.064Z,18.57
2022-09-26T18:20:49.339Z,12.73
2022-09-26T18:24:01.038Z,12.97
2022-09-26T18:27:07.962Z,21.93
2022-09-26T18:30:16.209Z,34.40
2022-09-26T18:33:23.164Z,11.97
2022-09-26T18:36:31.612Z,69.37
2022-09-26T18:39:39.827Z,74.77
2022-09-26T18:42:46.919Z,64.33
2022-09-26T18:45:54.283Z,49.73
2022-09-26T18:49:06.536Z,50.47
2022-09-26T18:52:16.148Z,27.53
2022-09-26T18:55:43.418Z,32.90
2022-09-26T18:58:50.762Z,26.47
2022-09-26T19:01:59.810Z,29.57
2022-09-26T19:05:08.636Z,39.47
2022-09-26T19:08:33.266Z,36.73
2022-09-26T19:11:41.932Z,40.20
2022-09-26T19:14:48.681Z,39.77
2022-09-26T19:17:55.149Z,34.97
2022-09-26T19:21:02.157Z,24.43
2022-09-26T19:24:20.435Z,13.70
2022-09-26T19:27:29.850Z,14.67
2022-09-26T19:30:36.285Z,32.83
2022-09-26T19:33:45.454Z,28.47
2022-09-26T19:36:52.446Z,28.73
2022-09-26T19:39:58.756Z,29.23
2022-09-26T19:43:06.271Z,21.87
2022-09-26T19:46:18.461Z,19.10
2022-09-26T19:49:27.151Z,30.23
2022-09-26T19:52:33.604Z,20.53
2022-09-26T19:55:40.625Z,24.37
2022-09-26T19:58:48.690Z,19.77
2022-09-26T20:01:55.223Z,22.90
2022-09-26T20:05:01.388Z,28.33
2022-09-26T20:08:09.627Z,19.30
2022-09-26T20:11:16.589Z,25.23
2022-09-26T20:14:27.293Z,11.97
2022-09-26T20:17:34.294Z,15.10
2022-09-26T20:20:42.369Z,16.40
2022-09-26T20:23:48.805Z,8.67
2022-09-26T20:26:56.467Z,11.63
2022-09-26T20:30:21.621Z,9.77
2022-09-26T20:33:28.152Z,10.77
2022-09-26T20:36:36.141Z,13.13
2022-09-26T20:39:43.348Z,11.60
2022-09-26T20:42:57.037Z,13.27
2022-09-26T20:46:06.703Z,11.77
2022-09-26T20:49:17.473Z,15.33
2022-09-26T20:52:26.151Z,13.80
2022-09-26T20:55:33.423Z,14.10
2022-09-26T20:58:39.544Z,23.57
2022-09-26T21:01:47.546Z,31.80
2022-09-26T21:04:55.011Z,21.47
2022-09-26T21:08:01.776Z,40.23
2022-09-26T21:11:11.576Z,38.60
2022-09-26T21:14:18.299Z,33.27
2022-09-26T21:17:29.312Z,29.40
2022-09-26T21:20:36.108Z,25.03
2022-09-26T21:23:44.239Z,20.93
2022-09-26T21:26:50.852Z,33.67
2022-09-26T21:29:57.353Z,25.03
2022-09-26T21:33:05.212Z,20.43
2022-09-26T21:36:11.655Z,17.93
2022-09-26T21:39:19.633Z,18.70
2022-09-26T21:42:27.359Z,18.80
2022-09-26T21:45:34.043Z,16.47
2022-09-26T21:48:41.625Z,11.03
2022-09-26T21:51:51.840Z,16.70
2022-09-26T21:55:01.038Z,11.07
2022-09-26T21:58:13.907Z,10.77
2022-09-26T22:01:20.550Z,24.50
2022-09-26T22:04:28.183Z,10.97
2022-09-26T22:07:34.067Z,9.33
2022-09-26T22:10:40.380Z,13.60
2022-09-26T22:13:46.614Z,9.40
2022-09-26T22:16:54.800Z,9.30
2022-09-26T22:20:02.464Z,14.53
2022-09-26T22:23:08.839Z,11.77
2022-09-26T22:26:15.043Z,11.33
2022-09-26T22:29:21.547Z,11.77
2022-09-26T22:32:28.308Z,12.83
2022-09-26T22:35:36.601Z,11.80
2022-09-26T22:38:43.096Z,10.10
2022-09-26T22:41:49.273Z,11.13
2022-09-26T22:44:55.807Z,9.63
2022-09-26T22:48:02.288Z,10.60
2022-09-26T22:51:10.584Z,10.80
2022-09-26T22:54:17.227Z,10.73
2022-09-26T22:57:23.585Z,11.70
2022-09-26T23:00:29.884Z,10.47
2022-09-26T23:03:36.413Z,8.97
2022-09-26T23:06:44.885Z,9.80
2022-09-26T23:09:51.033Z,10.07
2022-09-26T23:12:58.440Z,9.73
2022-09-26T23:16:06.446Z,9.87
2022-09-26T23:19:12.546Z,24.33
2022-09-26T23:22:19.907Z,10.47
2022-09-26T23:25:26.183Z,10.03
2022-09-26T23:28:33.844Z,20.77
2022-09-26T23:31:40.064Z,10.37
2022-09-26T23:34:46.304Z,9.43
2022-09-26T23:37:53.900Z,9.17
2022-09-26T23:41:00.137Z,10.03
2022-09-26T23:44:06.414Z,9.20
2022-09-26T23:47:12.650Z,9.63
2022-09-26T23:50:19.104Z,10.57
2022-09-26T23:53:26.964Z,8.93
2022-09-26T23:56:32.993Z,9.57
2022-09-26T23:59:39.474Z,9.70
